Time;durP1;ratioP1;P1;durP2;ratioP2;P2;SDS_P1;SDS_P2;PMS_P1;PMS_P2;Temp;Humidity;BMP_temperature;BMP_pressure;BME280_temperature;BME280_humidity;BME280_pressure;Samples;Min_cycle;Max_cycle;Signal;HPM_P1;HPM_P2
2021/07/26 00:00:20;;;;;;;;;;;25.40;99.90;;;;;;1927600;73;20246;-91
2021/07/26 00:02:49;;;;;;;;;;;25.40;99.90;;;;;;1940352;73;20210;-92
2021/07/26 00:05:22;;;;;;;;;;;25.40;99.90;;;;;;1940347;73;20239;-92
2021/07/26 00:07:51;;;;;;;;;;;25.40;99.90;;;;;;1923536;73;20179;-91
2021/07/26 00:10:21;;;;;;;;;;;25.40;99.90;;;;;;1900261;74;20180;-92
2021/07/26 00:12:51;;;;;;;;;;;25.40;99.90;;;;;;1844537;76;20421;-92
2021/07/26 00:15:21;;;;;;;;;;;25.40;99.90;;;;;;1888479;74;20199;-90
2021/07/26 00:17:51;;;;;;;;;;;25.40;99.90;;;;;;1843587;76;20240;-91
2021/07/26 00:20:20;;;;;;;;;;;25.50;99.90;;;;;;1886429;75;20203;-93
2021/07/26 00:22:50;;;;;;;;;;;25.40;99.90;;;;;;1938752;73;20124;-92
2021/07/26 00:25:21;;;;;;;;;;;25.50;99.90;;;;;;1928766;73;20173;-92
2021/07/26 00:27:52;;;;;;;;;;;25.50;99.90;;;;;;1915591;73;20127;-93
2021/07/26 00:30:22;;;;;;;;;;;25.50;99.90;;;;;;1934639;73;20242;-92
2021/07/26 00:32:51;;;;;;;;;;;25.50;99.90;;;;;;1889004;74;20220;-92
2021/07/26 00:35:20;;;;;;;;;;;25.50;99.90;;;;;;1941894;73;20187;-91
2021/07/26 00:37:55;;;;;;;;;;;25.50;99.90;;;;;;1931655;73;20245;-91
2021/07/26 00:40:38;;;;;;;;;;;25.60;99.90;;;;;;1923234;73;20209;-92
2021/07/26 00:43:07;;;;;;;;;;;25.60;99.90;;;;;;1926288;73;20238;-91
2021/07/26 00:45:36;;;;;;;;;;;25.60;99.90;;;;;;1934430;73;20203;-92
2021/07/26 00:48:06;;;;;;;;;;;25.60;99.90;;;;;;1919151;74;20226;-91
2021/07/26 00:50:36;;;;;;;;;;;25.70;99.90;;;;;;1925556;73;20656;-90
2021/07/26 00:53:05;;;;;;;;;;;25.70;99.90;;;;;;1925314;73;20248;-89
2021/07/26 00:55:35;;;;;;;;;;;25.70;99.90;;;;;;1913063;73;20214;-91
2021/07/26 00:58:08;;;;;;;;;;;25.70;99.90;;;;;;1928814;73;20197;-92
2021/07/26 01:00:37;;;;;;;;;;;25.80;99.90;;;;;;1925123;73;20166;-92
2021/07/26 01:03:08;;;;;;;;;;;25.80;99.90;;;;;;1918777;73;20224;-93
2021/07/26 01:05:39;;;;;;;;;;;25.80;99.90;;;;;;1922656;73;20209;-91
2021/07/26 01:08:11;;;;;;;;;;;25.90;99.90;;;;;;1916340;73;20223;-91
2021/07/26 01:10:41;;;;;;;;;;;25.90;99.90;;;;;;1920890;73;20229;-91
2021/07/26 01:13:11;;;;;;;;;;;25.90;99.90;;;;;;1920973;73;20191;-91
2021/07/26 01:15:41;;;;;;;;;;;26.00;99.90;;;;;;1871505;75;20255;-77
2021/07/26 01:18:13;;;;;;;;;;;26.00;99.90;;;;;;1843426;76;20227;-79
2021/07/26 01:20:42;;;;;;;;;;;26.10;99.90;;;;;;1875660;75;20464;-79
2021/07/26 01:23:12;;;;;;;;;;;26.10;99.90;;;;;;1845311;76;20300;-77
2021/07/26 01:25:42;;;;;;;;;;;26.20;99.90;;;;;;1834894;77;20188;-79
2021/07/26 01:28:13;;;;;;;;;;;26.20;99.90;;;;;;1873049;75;20416;-78
2021/07/26 01:30:44;;;;;;;;;;;26.20;99.90;;;;;;1870336;75;20210;-79
2021/07/26 01:33:15;;;;;;;;;;;26.20;99.90;;;;;;1874459;75;20201;-78
2021/07/26 01:35:45;;;;;;;;;;;26.30;99.90;;;;;;1874874;75;20138;-79
2021/07/26 01:38:16;;;;;;;;;;;26.40;99.90;;;;;;1874742;75;20511;-79
2021/07/26 01:40:50;;;;;;;;;;;26.40;99.90;;;;;;1877460;75;20215;-78
2021/07/26 01:43:18;;;;;;;;;;;26.50;99.90;;;;;;1868418;75;21044;-78
2021/07/26 01:45:49;;;;;;;;;;;26.50;99.90;;;;;;1868056;75;20204;-79
2021/07/26 01:48:20;;;;;;;;;;;26.60;99.90;;;;;;1891038;74;20553;-78
2021/07/26 01:50:51;;;;;;;;;;;26.60;99.90;;;;;;1879220;75;20478;-79
2021/07/26 01:53:21;;;;;;;;;;;26.70;99.90;;;;;;1865477;75;20214;-79
2021/07/26 01:55:50;;;;;;;;;;;26.80;99.90;;;;;;1904118;74;20234;-80
2021/07/26 01:58:20;;;;;;;;;;;26.80;99.90;;;;;;1855572;75;20213;-78
2021/07/26 02:00:50;;;;;;;;;;;27.00;99.90;;;;;;1851580;75;20520;-80
2021/07/26 02:03:20;;;;;;;;;;;27.10;99.90;;;;;;1896941;74;20712;-78
2021/07/26 02:05:49;;;;;;;;;;;27.20;99.90;;;;;;1935918;72;20382;-79
2021/07/26 02:08:19;;;;;;;;;;;27.30;99.90;;;;;;1933003;72;20426;-81
2021/07/26 02:10:49;;;;;;;;;;;27.40;99.90;;;;;;1934701;72;20209;-79
2021/07/26 02:13:19;;;;;;;;;;;27.50;99.90;;;;;;1934035;72;20280;-78
2021/07/26 02:15:48;;;;;;;;;;;27.60;99.90;;;;;;1928273;73;20261;-80
2021/07/26 02:18:18;;;;;;;;;;;27.60;99.90;;;;;;1930144;73;20242;-79
2021/07/26 02:20:48;;;;;;;;;;;27.70;99.90;;;;;;1927794;73;20171;-79
2021/07/26 02:23:20;;;;;;;;;;;27.80;99.90;;;;;;1897142;74;20204;-79
2021/07/26 02:25:50;;;;;;;;;;;27.90;99.90;;;;;;1900083;74;20241;-78
2021/07/26 02:28:19;;;;;;;;;;;28.00;99.90;;;;;;1895747;74;20153;-77
2021/07/26 02:30:49;;;;;;;;;;;28.10;99.90;;;;;;1892791;74;20238;-78
2021/07/26 02:33:19;;;;;;;;;;;28.20;99.90;;;;;;1937197;72;20165;-78
2021/07/26 02:35:49;;;;;;;;;;;28.30;99.90;;;;;;1895032;74;20211;-77
2021/07/26 02:38:19;;;;;;;;;;;28.30;99.90;;;;;;1849655;75;20281;-77
2021/07/26 02:40:49;;;;;;;;;;;28.40;99.90;;;;;;1865206;75;20189;-78
2021/07/26 02:43:19;;;;;;;;;;;28.50;99.90;;;;;;1873864;75;20156;-79
2021/07/26 02:45:50;;;;;;;;;;;28.50;99.90;;;;;;1843821;75;20554;-78
2021/07/26 02:48:20;;;;;;;;;;;28.60;99.90;;;;;;1861867;75;20238;-78
2021/07/26 02:50:54;;;;;;;;;;;28.70;99.80;;;;;;1861164;75;20235;-77
2021/07/26 02:53:29;;;;;;;;;;;28.70;99.90;;;;;;1852329;76;20133;-77
2021/07/26 02:56:03;;;;;;;;;;;28.80;99.00;;;;;;1846213;76;20189;-78
2021/07/26 02:58:32;;;;;;;;;;;28.90;98.90;;;;;;1845360;75;20237;-79
2021/07/26 03:01:02;;;;;;;;;;;28.90;98.60;;;;;;1845821;76;20442;-79
2021/07/26 03:03:32;;;;;;;;;;;28.80;99.00;;;;;;1868381;76;20455;-78
2021/07/26 03:06:04;;;;;;;;;;;28.90;98.80;;;;;;1889847;76;20502;-78
2021/07/26 03:08:35;;;;;;;;;;;28.90;99.10;;;;;;1891318;76;20585;-79
2021/07/26 03:11:08;;;;;;;;;;;28.90;99.20;;;;;;1891927;76;20182;-79
2021/07/26 03:13:35;;;;;;;;;;;28.90;99.40;;;;;;1891748;76;20183;-79
2021/07/26 03:16:05;;;;;;;;;;;29.00;99.50;;;;;;1892030;76;20147;-77
2021/07/26 03:18:35;;;;;;;;;;;29.10;97.80;;;;;;1892720;76;20423;-77
2021/07/26 03:21:06;;;;;;;;;;;29.20;97.70;;;;;;1893198;76;20129;-78
2021/07/26 03:23:35;;;;;;;;;;;29.20;97.40;;;;;;1892502;76;20450;-77
2021/07/26 03:26:06;;;;;;;;;;;29.20;98.00;;;;;;1892061;76;20443;-77
2021/07/26 03:28:36;;;;;;;;;;;29.20;97.60;;;;;;1891970;76;20164;-77
2021/07/26 03:31:06;;;;;;;;;;;29.20;97.30;;;;;;1891745;76;20187;-77
2021/07/26 03:33:36;;;;;;;;;;;29.30;97.70;;;;;;1891644;76;20161;-80
2021/07/26 03:36:06;;;;;;;;;;;29.30;97.60;;;;;;1891552;76;20167;-78
2021/07/26 03:38:36;;;;;;;;;;;29.30;97.30;;;;;;1891857;76;20167;-77
2021/07/26 03:41:06;;;;;;;;;;;29.30;97.60;;;;;;1893241;76;20184;-76
2021/07/26 03:43:35;;;;;;;;;;;29.30;97.60;;;;;;1893100;76;20116;-77
2021/07/26 03:46:06;;;;;;;;;;;29.40;97.10;;;;;;1893195;76;20121;-78
2021/07/26 03:48:36;;;;;;;;;;;29.40;97.50;;;;;;1893368;75;20132;-77
2021/07/26 03:51:05;;;;;;;;;;;29.40;97.00;;;;;;1866746;75;20304;-78
2021/07/26 03:53:35;;;;;;;;;;;29.30;96.90;;;;;;1849306;76;20168;-78
2021/07/26 03:56:05;;;;;;;;;;;29.30;96.90;;;;;;1863521;76;20169;-79
2021/07/26 03:58:34;;;;;;;;;;;29.40;97.30;;;;;;1880648;75;20177;-78
2021/07/26 04:01:04;;;;;;;;;;;29.40;97.30;;;;;;1858689;77;20271;-79
2021/07/26 04:03:34;;;;;;;;;;;29.40;96.50;;;;;;1859411;75;20181;-77
2021/07/26 04:08:40;;;;;;;;;;;29.40;96.70;;;;;;1865390;76;20158;-77
2021/07/26 04:11:16;;;;;;;;;;;29.40;96.60;;;;;;1906485;75;20174;-78
2021/07/26 04:13:40;;;;;;;;;;;29.40;97.10;;;;;;1920712;73;20219;-77
2021/07/26 04:16:11;;;;;;;;;;;29.40;97.00;;;;;;1901170;74;20190;-78
2021/07/26 04:18:42;;;;;;;;;;;29.40;96.50;;;;;;1914457;74;20830;-77
2021/07/26 04:21:26;;;;;;;;;;;29.40;96.60;;;;;;1921712;74;20214;-76
2021/07/26 04:23:54;;;;;;;;;;;29.40;96.30;;;;;;1918243;74;20528;-78
2021/07/26 04:26:24;;;;;;;;;;;29.50;96.50;;;;;;1922940;74;20186;-78
2021/07/26 04:28:55;;;;;;;;;;;29.50;96.30;;;;;;1907820;74;20149;-78
2021/07/26 04:31:26;;;;;;;;;;;29.50;95.80;;;;;;1908647;74;20156;-77
2021/07/26 04:33:56;;;;;;;;;;;29.60;95.80;;;;;;1914366;74;20154;-79
2021/07/26 04:36:25;;;;;;;;;;;29.60;95.30;;;;;;1916526;74;20253;-78
2021/07/26 04:38:55;;;;;;;;;;;29.60;95.60;;;;;;1908445;74;20204;-79
2021/07/26 04:41:26;;;;;;;;;;;29.60;95.50;;;;;;1901613;74;20238;-79
2021/07/26 04:43:58;;;;;;;;;;;29.70;95.30;;;;;;1912322;74;20158;-77
2021/07/26 04:46:28;;;;;;;;;;;29.70;95.60;;;;;;1905192;74;20512;-77
2021/07/26 04:48:57;;;;;;;;;;;29.70;95.70;;;;;;1864446;75;20521;-76
2021/07/26 04:51:27;;;;;;;;;;;29.70;95.70;;;;;;1867555;76;20270;-77
2021/07/26 04:53:59;;;;;;;;;;;29.90;96.10;;;;;;1867386;75;20271;-78
2021/07/26 04:56:30;;;;;;;;;;;29.90;95.50;;;;;;1847674;75;20219;-79
2021/07/26 04:59:00;;;;;;;;;;;30.00;95.40;;;;;;1821279;78;20211;-78
2021/07/26 05:01:29;;;;;;;;;;;30.00;95.00;;;;;;1833049;77;20250;-76
2021/07/26 05:04:01;;;;;;;;;;;30.10;94.80;;;;;;1903742;74;20133;-77
2021/07/26 05:06:31;;;;;;;;;;;30.10;94.40;;;;;;1869360;75;20164;-77
2021/07/26 05:09:00;;;;;;;;;;;30.10;94.50;;;;;;1912933;74;20201;-76
2021/07/26 05:11:30;;;;;;;;;;;30.30;94.30;;;;;;1901469;74;20171;-75
2021/07/26 05:13:59;;;;;;;;;;;30.30;94.80;;;;;;1907636;74;20139;-77
2021/07/26 05:16:29;;;;;;;;;;;30.40;94.20;;;;;;1899896;74;20516;-77
2021/07/26 05:18:59;;;;;;;;;;;30.30;94.20;;;;;;1908115;74;20198;-78
2021/07/26 05:21:46;;;;;;;;;;;30.30;94.30;;;;;;1905234;74;20517;-78
2021/07/26 05:24:17;;;;;;;;;;;30.30;94.30;;;;;;1913080;74;20285;-77
2021/07/26 05:26:46;;;;;;;;;;;30.30;93.20;;;;;;1911506;74;20480;-78
2021/07/26 05:29:16;;;;;;;;;;;30.20;93.80;;;;;;1900585;74;20253;-78
2021/07/26 05:31:46;;;;;;;;;;;30.30;93.60;;;;;;1902970;74;20281;-76
2021/07/26 05:34:15;;;;;;;;;;;30.20;93.20;;;;;;1900041;74;20281;-79
2021/07/26 05:36:45;;;;;;;;;;;30.20;93.00;;;;;;1902397;74;20215;-78
2021/07/26 05:39:15;;;;;;;;;;;30.20;92.90;;;;;;1908511;74;20231;-77
2021/07/26 05:41:45;;;;;;;;;;;30.20;93.30;;;;;;1898068;74;20272;-77
2021/07/26 05:44:15;;;;;;;;;;;30.20;93.30;;;;;;1908693;74;20160;-77
2021/07/26 05:46:45;;;;;;;;;;;30.30;92.70;;;;;;1908923;74;20273;-76
2021/07/26 05:49:15;;;;;;;;;;;30.30;92.70;;;;;;1911057;73;20130;-77
2021/07/26 05:51:46;;;;;;;;;;;30.30;93.10;;;;;;1935774;73;20128;-77
2021/07/26 05:54:16;;;;;;;;;;;30.40;92.90;;;;;;1928571;73;20202;-78
2021/07/26 05:56:49;;;;;;;;;;;30.40;92.70;;;;;;1937193;73;20553;-78
2021/07/26 05:59:20;;;;;;;;;;;30.50;92.50;;;;;;1943998;73;20499;-79
2021/07/26 06:01:49;;;;;;;;;;;30.60;92.30;;;;;;1939804;73;20128;-78
2021/07/26 06:04:23;;;;;;;;;;;30.70;91.90;;;;;;1934946;73;20202;-78
2021/07/26 06:06:54;;;;;;;;;;;30.80;91.80;;;;;;1932135;73;20205;-77
2021/07/26 06:09:26;;;;;;;;;;;30.90;91.90;;;;;;1930700;73;20379;-77
2021/07/26 06:11:56;;;;;;;;;;;30.90;91.40;;;;;;1938482;73;20234;-76
2021/07/26 06:14:28;;;;;;;;;;;30.90;92.20;;;;;;1931598;73;20200;-78
2021/07/26 06:16:59;;;;;;;;;;;30.80;92.80;;;;;;1939664;73;20184;-79
2021/07/26 06:19:29;;;;;;;;;;;30.80;92.60;;;;;;1941747;73;20224;-77
2021/07/26 06:21:59;;;;;;;;;;;30.80;92.90;;;;;;1938564;73;20204;-78
2021/07/26 06:24:29;;;;;;;;;;;30.80;92.20;;;;;;1937035;73;20221;-77
2021/07/26 06:27:00;;;;;;;;;;;30.90;92.70;;;;;;1856392;76;20204;-77
2021/07/26 06:29:33;;;;;;;;;;;30.90;91.80;;;;;;1855038;75;20259;-77
2021/07/26 06:32:06;;;;;;;;;;;30.90;92.00;;;;;;1888171;75;20203;-79
2021/07/26 06:34:36;;;;;;;;;;;30.90;90.90;;;;;;1853426;76;20500;-78
2021/07/26 06:37:09;;;;;;;;;;;30.90;91.70;;;;;;1935845;73;20226;-77
2021/07/26 06:39:38;;;;;;;;;;;30.90;91.40;;;;;;1934126;73;20189;-77
2021/07/26 06:42:09;;;;;;;;;;;30.80;91.50;;;;;;1936140;73;20251;-77
2021/07/26 06:44:44;;;;;;;;;;;30.90;91.20;;;;;;1851818;76;20237;-77
2021/07/26 06:47:13;;;;;;;;;;;30.90;91.30;;;;;;1838160;76;20172;-78
2021/07/26 06:49:42;;;;;;;;;;;31.00;91.10;;;;;;1923263;73;20204;-79
2021/07/26 06:52:13;;;;;;;;;;;31.00;90.70;;;;;;1916338;73;20856;-78
2021/07/26 06:54:43;;;;;;;;;;;31.10;90.90;;;;;;1933982;73;20242;-76
2021/07/26 06:57:13;;;;;;;;;;;31.20;90.30;;;;;;1914401;73;20761;-77
2021/07/26 06:59:42;;;;;;;;;;;31.20;90.70;;;;;;1933303;73;20240;-77
2021/07/26 07:02:13;;;;;;;;;;;31.30;90.20;;;;;;1936633;74;20223;-78
2021/07/26 07:04:43;;;;;;;;;;;31.20;90.50;;;;;;1935422;73;20484;-77
2021/07/26 07:07:13;;;;;;;;;;;31.10;91.00;;;;;;1939562;73;20238;-77
2021/07/26 07:09:43;;;;;;;;;;;31.00;91.40;;;;;;1935480;73;20206;-76
2021/07/26 07:12:14;;;;;;;;;;;31.00;91.40;;;;;;1934058;73;20452;-77
2021/07/26 07:14:45;;;;;;;;;;;31.10;91.00;;;;;;1943173;73;20279;-77
2021/07/26 07:17:15;;;;;;;;;;;31.00;90.90;;;;;;1953181;73;20184;-78
2021/07/26 07:19:46;;;;;;;;;;;31.00;91.40;;;;;;1936672;73;20222;-77
2021/07/26 07:22:17;;;;;;;;;;;31.00;91.70;;;;;;1929481;73;20479;-77
2021/07/26 07:24:48;;;;;;;;;;;31.00;92.10;;;;;;1931903;73;20180;-77
2021/07/26 07:27:17;;;;;;;;;;;31.00;91.90;;;;;;1939786;73;20232;-77
2021/07/26 07:29:48;;;;;;;;;;;31.10;92.00;;;;;;1932505;73;20180;-76
2021/07/26 07:32:23;;;;;;;;;;;31.20;90.10;;;;;;1932187;73;20204;-77
2021/07/26 07:34:53;;;;;;;;;;;31.30;88.90;;;;;;1937930;73;20258;-78
2021/07/26 07:37:23;;;;;;;;;;;31.40;88.20;;;;;;1930471;73;20617;-79
2021/07/26 07:40:03;;;;;;;;;;;31.40;88.90;;;;;;1942661;73;20181;-79
2021/07/26 07:42:25;;;;;;;;;;;31.40;89.70;;;;;;1899769;73;20227;-77
2021/07/26 07:44:59;;;;;;;;;;;31.50;89.40;;;;;;1879115;76;20143;-78
2021/07/26 07:47:35;;;;;;;;;;;31.50;89.70;;;;;;1866718;76;20256;-78
2021/07/26 07:50:05;;;;;;;;;;;31.50;90.20;;;;;;1858959;76;20162;-77
2021/07/26 07:52:34;;;;;;;;;;;31.50;90.20;;;;;;1844415;77;20450;-77
2021/07/26 07:55:05;;;;;;;;;;;31.50;89.40;;;;;;1936622;73;20160;-77
2021/07/26 07:57:36;;;;;;;;;;;31.30;89.70;;;;;;1935512;73;20219;-77
2021/07/26 08:00:09;;;;;;;;;;;31.20;90.40;;;;;;1946653;73;20200;-77
2021/07/26 08:02:41;;;;;;;;;;;31.20;90.10;;;;;;1914133;73;20206;-78
2021/07/26 08:05:12;;;;;;;;;;;31.10;90.40;;;;;;1935931;73;20123;-78
2021/07/26 08:07:43;;;;;;;;;;;31.00;90.20;;;;;;1939368;73;20154;-79
2021/07/26 08:10:17;;;;;;;;;;;31.00;90.40;;;;;;1940947;73;20193;-78
2021/07/26 08:12:46;;;;;;;;;;;30.90;90.50;;;;;;1940886;73;20212;-79
2021/07/26 08:15:17;;;;;;;;;;;30.90;91.00;;;;;;1940253;73;20146;-78
2021/07/26 08:17:48;;;;;;;;;;;30.80;90.80;;;;;;1935648;73;20129;-79
2021/07/26 08:20:19;;;;;;;;;;;30.80;91.20;;;;;;1939653;73;20214;-79
2021/07/26 08:22:50;;;;;;;;;;;30.90;91.20;;;;;;1939212;73;20126;-78
2021/07/26 08:25:22;;;;;;;;;;;30.90;91.10;;;;;;1930449;73;20161;-78
2021/07/26 08:27:53;;;;;;;;;;;30.80;90.60;;;;;;1860899;74;20199;-77
2021/07/26 08:30:23;;;;;;;;;;;30.80;91.00;;;;;;1875303;75;20199;-79
2021/07/26 08:32:53;;;;;;;;;;;30.70;91.30;;;;;;1895308;74;20193;-77
2021/07/26 08:35:24;;;;;;;;;;;30.70;91.60;;;;;;1898450;74;20129;-78
2021/07/26 08:37:55;;;;;;;;;;;30.70;91.70;;;;;;1893488;74;20209;-78
2021/07/26 08:40:26;;;;;;;;;;;30.70;91.70;;;;;;1878234;76;20203;-79
2021/07/26 08:42:57;;;;;;;;;;;30.70;91.40;;;;;;1934809;73;20185;-78
2021/07/26 08:45:26;;;;;;;;;;;30.70;91.40;;;;;;1940262;73;20491;-78
2021/07/26 08:47:57;;;;;;;;;;;30.80;91.40;;;;;;1931699;73;20472;-76
2021/07/26 08:50:27;;;;;;;;;;;30.80;89.80;;;;;;1938937;73;20165;-77
2021/07/26 08:53:00;;;;;;;;;;;30.90;90.50;;;;;;1906524;74;20226;-78
2021/07/26 08:55:32;;;;;;;;;;;31.00;90.30;;;;;;1867836;75;20197;-79
2021/07/26 08:58:02;;;;;;;;;;;31.00;88.10;;;;;;1871868;75;20132;-77
2021/07/26 09:00:34;;;;;;;;;;;31.00;88.10;;;;;;1844091;77;20505;-78
2021/07/26 09:03:04;;;;;;;;;;;31.00;88.50;;;;;;1830028;77;20218;-78
2021/07/26 09:05:34;;;;;;;;;;;31.00;88.50;;;;;;1913091;74;20180;-80
2021/07/26 09:08:04;;;;;;;;;;;31.10;89.30;;;;;;1908321;74;20187;-78
2021/07/26 09:10:35;;;;;;;;;;;31.10;89.30;;;;;;1906136;74;20210;-78
2021/07/26 09:13:05;;;;;;;;;;;31.20;88.10;;;;;;1831588;77;20417;-79
2021/07/26 09:15:37;;;;;;;;;;;31.20;87.80;;;;;;1838894;77;20190;-78
2021/07/26 09:18:25;;;;;;;;;;;31.20;88.30;;;;;;1839131;75;20238;-79
2021/07/26 09:20:55;;;;;;;;;;;31.30;88.10;;;;;;1901280;74;20198;-78
2021/07/26 09:23:38;;;;;;;;;;;31.30;87.40;;;;;;1904039;74;20136;-78
2021/07/26 09:26:20;;;;;;;;;;;31.30;86.90;;;;;;1869653;74;20500;-77
2021/07/26 09:29:27;;;;;;;;;;;31.30;85.60;;;;;;1902103;74;20214;-78
2021/07/26 09:31:48;;;;;;;;;;;31.30;85.40;;;;;;1829054;77;20154;-79
2021/07/26 09:34:20;;;;;;;;;;;31.30;86.10;;;;;;1863079;75;20221;-76
2021/07/26 09:37:09;;;;;;;;;;;31.20;86.20;;;;;;1847183;75;20505;-78
2021/07/26 09:39:39;;;;;;;;;;;31.20;87.00;;;;;;1861482;75;20169;-76
2021/07/26 09:42:09;;;;;;;;;;;31.20;86.30;;;;;;1877697;75;20148;-78
2021/07/26 09:44:39;;;;;;;;;;;31.20;86.30;;;;;;1902628;74;20177;-78
2021/07/26 09:47:10;;;;;;;;;;;31.10;85.30;;;;;;1907212;74;20604;-77
2021/07/26 09:49:41;;;;;;;;;;;31.10;85.80;;;;;;1852523;75;20195;-77
2021/07/26 09:52:11;;;;;;;;;;;31.00;84.90;;;;;;1864837;75;20193;-78
2021/07/26 09:54:42;;;;;;;;;;;31.00;85.40;;;;;;1877767;75;20510;-79
2021/07/26 09:57:13;;;;;;;;;;;31.00;84.90;;;;;;1833851;76;20211;-77
2021/07/26 09:59:45;;;;;;;;;;;31.00;85.70;;;;;;1833650;77;20223;-78
2021/07/26 10:02:15;;;;;;;;;;;31.00;86.30;;;;;;1834100;76;20204;-77
2021/07/26 10:04:46;;;;;;;;;;;31.10;87.40;;;;;;1826589;77;20685;-77
2021/07/26 10:10:27;;;;;;;;;;;31.00;87.40;;;;;;1913768;73;20486;-80
2021/07/26 10:13:07;;;;;;;;;;;31.10;87.20;;;;;;1924146;73;20329;-78
2021/07/26 10:15:37;;;;;;;;;;;31.00;87.40;;;;;;1922041;73;20130;-80
2021/07/26 10:18:08;;;;;;;;;;;31.00;87.90;;;;;;1879582;74;20214;-77
2021/07/26 10:20:42;;;;;;;;;;;31.00;87.40;;;;;;1875523;76;20451;-77
2021/07/26 10:23:12;;;;;;;;;;;30.90;87.50;;;;;;1915431;73;20235;-78
2021/07/26 10:25:43;;;;;;;;;;;30.90;88.00;;;;;;1913489;73;20242;-79
2021/07/26 10:28:17;;;;;;;;;;;30.80;86.40;;;;;;1921926;73;20216;-78
2021/07/26 10:30:47;;;;;;;;;;;30.70;87.00;;;;;;1926694;73;20202;-78
2021/07/26 10:33:26;;;;;;;;;;;30.70;87.00;;;;;;1921973;74;20126;-78
2021/07/26 10:35:58;;;;;;;;;;;30.60;86.80;;;;;;1913910;74;20198;-79
2021/07/26 10:38:37;;;;;;;;;;;30.50;87.50;;;;;;1923734;74;20150;-79
2021/07/26 10:41:09;;;;;;;;;;;30.50;87.50;;;;;;1920806;74;20188;-79
2021/07/26 10:43:42;;;;;;;;;;;30.40;88.30;;;;;;1921249;73;20194;-80
2021/07/26 10:46:21;;;;;;;;;;;30.30;88.80;;;;;;1919978;73;20214;-80
2021/07/26 10:49:04;;;;;;;;;;;30.30;89.10;;;;;;1913511;74;20587;-79
2021/07/26 10:51:24;;;;;;;;;;;30.30;88.50;;;;;;1911173;73;20221;-79
2021/07/26 10:53:54;;;;;;;;;;;30.20;88.30;;;;;;1924099;73;20191;-81
2021/07/26 10:56:25;;;;;;;;;;;30.20;88.00;;;;;;1923443;73;20207;-78
2021/07/26 10:58:56;;;;;;;;;;;30.10;87.70;;;;;;1887970;74;20224;-78
2021/07/26 11:01:27;;;;;;;;;;;30.10;88.40;;;;;;1921543;74;20188;-78
2021/07/26 11:03:58;;;;;;;;;;;30.00;88.50;;;;;;1922939;73;20260;-75
2021/07/26 11:06:28;;;;;;;;;;;29.90;88.50;;;;;;1881298;74;20207;-81
2021/07/26 11:09:04;;;;;;;;;;;29.90;88.80;;;;;;1851906;76;20290;-81
2021/07/26 11:11:31;;;;;;;;;;;29.80;88.90;;;;;;1856301;76;20455;-80
2021/07/26 11:26:31;;;;;;;;;;;29.60;90.60;;;;;;1634888;87;20199;-79
2021/07/26 11:29:52;;;;;;;;;;;29.60;90.70;;;;;;1546738;87;20594;-79
2021/07/26 11:32:19;;;;;;;;;;;29.60;91.00;;;;;;1679765;83;20221;-78
2021/07/26 11:37:52;;;;;;;;;;;29.50;90.90;;;;;;1698509;83;20179;-79
2021/07/26 11:40:28;;;;;;;;;;;29.40;91.10;;;;;;1658911;84;20273;-79
2021/07/26 11:43:00;;;;;;;;;;;29.40;91.10;;;;;;1696312;83;20343;-78
2021/07/26 11:45:28;;;;;;;;;;;29.40;91.30;;;;;;1696723;83;20293;-80
2021/07/26 11:48:06;;;;;;;;;;;29.40;91.40;;;;;;1701895;83;20206;-78
2021/07/26 11:53:53;;;;;;;;;;;29.30;91.80;;;;;;1563509;90;20228;-79
2021/07/26 11:56:50;;;;;;;;;;;;;;;;;;;;;
2021/07/26 11:59:40;;;;;;;;;;;29.20;92.40;;;;;;1866003;75;20187;-79
2021/07/26 12:02:10;;;;;;;;;;;29.20;92.50;;;;;;1912597;75;20207;-78
2021/07/26 12:04:40;;;;;;;;;;;29.10;92.70;;;;;;1888680;75;20169;-78
2021/07/26 12:07:14;;;;;;;;;;;29.10;92.90;;;;;;1887784;75;20146;-79
2021/07/26 12:09:50;;;;;;;;;;;29.00;92.80;;;;;;1905981;74;20260;-79
2021/07/26 12:12:16;;;;;;;;;;;29.00;93.00;;;;;;1890493;74;20165;-78
2021/07/26 12:14:46;;;;;;;;;;;29.00;93.20;;;;;;1893705;75;20984;-77
2021/07/26 12:17:17;;;;;;;;;;;29.00;93.40;;;;;;1903698;75;20232;-77
2021/07/26 12:19:52;;;;;;;;;;;28.90;93.40;;;;;;1900855;75;20196;-78
2021/07/26 12:22:23;;;;;;;;;;;28.90;93.50;;;;;;1888967;74;20138;-78
2021/07/26 12:24:59;;;;;;;;;;;28.80;93.70;;;;;;1902759;75;20213;-78
2021/07/26 12:27:28;;;;;;;;;;;28.80;93.70;;;;;;1906133;75;20443;-78
2021/07/26 12:29:59;;;;;;;;;;;28.70;93.90;;;;;;1911660;74;20235;-78
2021/07/26 12:32:30;;;;;;;;;;;28.70;94.00;;;;;;1903954;75;20235;-77
2021/07/26 12:35:01;;;;;;;;;;;28.70;94.10;;;;;;1887115;75;20508;-78
2021/07/26 12:37:33;;;;;;;;;;;28.60;94.10;;;;;;1898603;75;20113;-79
2021/07/26 12:40:04;;;;;;;;;;;28.60;94.30;;;;;;1896153;75;20169;-77
2021/07/26 12:42:33;;;;;;;;;;;28.60;94.40;;;;;;1907801;74;20248;-78
2021/07/26 12:45:04;;;;;;;;;;;28.60;94.50;;;;;;1919794;73;20171;-78
2021/07/26 12:47:36;;;;;;;;;;;28.60;94.70;;;;;;1900797;74;20203;-77
2021/07/26 12:50:06;;;;;;;;;;;28.50;94.60;;;;;;1910809;74;20208;-78
2021/07/26 12:52:36;;;;;;;;;;;28.50;94.60;;;;;;1903128;75;20171;-78
2021/07/26 12:55:06;;;;;;;;;;;28.50;94.70;;;;;;1919586;74;20186;-78
2021/07/26 12:57:36;;;;;;;;;;;28.50;94.90;;;;;;1908849;74;20481;-78
2021/07/26 13:00:08;;;;;;;;;;;28.50;94.90;;;;;;1910171;73;20255;-86
2021/07/26 13:02:41;;;;;;;;;;;28.50;94.90;;;;;;1908598;73;20200;-91
2021/07/26 13:05:14;;;;;;;;;;;28.40;94.90;;;;;;1910408;74;20346;-90
2021/07/26 13:07:43;;;;;;;;;;;28.40;94.90;;;;;;1906183;74;20206;-91
2021/07/26 13:10:12;;;;;;;;;;;28.40;95.00;;;;;;1915273;74;20192;-91
2021/07/26 13:12:42;;;;;;;;;;;28.40;95.10;;;;;;1906706;74;20130;-95
2021/07/26 13:15:13;;;;;;;;;;;28.40;95.10;;;;;;1915046;74;20476;-93
2021/07/26 13:17:43;;;;;;;;;;;28.40;95.10;;;;;;1911245;74;20203;-92
2021/07/26 13:20:13;;;;;;;;;;;28.40;95.20;;;;;;1916206;74;20252;-92
2021/07/26 13:22:43;;;;;;;;;;;28.30;95.20;;;;;;1916708;74;20224;-91
2021/07/26 13:25:14;;;;;;;;;;;28.30;95.30;;;;;;1911109;74;20164;-90
2021/07/26 13:27:44;;;;;;;;;;;28.30;95.40;;;;;;1913376;74;20299;-91
2021/07/26 13:30:15;;;;;;;;;;;28.30;95.60;;;;;;1909522;74;20223;-92
2021/07/26 13:32:49;;;;;;;;;;;28.30;95.70;;;;;;1914031;74;20185;-92
2021/07/26 13:35:19;;;;;;;;;;;28.20;95.80;;;;;;1900101;74;20233;-91
2021/07/26 13:37:50;;;;;;;;;;;28.20;95.90;;;;;;1912311;74;20205;-91
2021/07/26 13:40:19;;;;;;;;;;;28.20;96.00;;;;;;1907499;74;20154;-91
2021/07/26 13:42:49;;;;;;;;;;;28.20;96.20;;;;;;1901252;74;20551;-91
2021/07/26 13:45:18;;;;;;;;;;;28.10;96.30;;;;;;1900377;74;20488;-91
2021/07/26 13:47:49;;;;;;;;;;;28.10;96.40;;;;;;1914489;74;20458;-91
2021/07/26 13:50:18;;;;;;;;;;;28.10;96.60;;;;;;1904418;74;20227;-91
2021/07/26 13:52:48;;;;;;;;;;;28.10;96.70;;;;;;1931374;74;20151;-91
2021/07/26 13:55:18;;;;;;;;;;;28.10;97.00;;;;;;1916053;73;20210;-91
2021/07/26 13:57:48;;;;;;;;;;;28.00;97.10;;;;;;1815891;76;20195;-90
2021/07/26 14:00:18;;;;;;;;;;;28.00;97.30;;;;;;1814119;76;20094;-91
2021/07/26 14:02:49;;;;;;;;;;;28.00;97.40;;;;;;1815873;75;20176;-91
2021/07/26 14:05:25;;;;;;;;;;;28.00;97.60;;;;;;1813431;76;20237;-89
2021/07/26 14:08:01;;;;;;;;;;;27.90;97.70;;;;;;1818203;75;20180;-90
2021/07/26 14:10:30;;;;;;;;;;;27.90;97.70;;;;;;1830494;75;20310;-89
2021/07/26 14:13:24;;;;;;;;;;;;;;;;;;;;;
2021/07/26 14:16:05;;;;;;;;;;;27.90;97.80;;;;;;1836628;78;20182;-92
2021/07/26 14:18:34;;;;;;;;;;;27.90;97.90;;;;;;1802031;78;20716;-93
2021/07/26 14:21:10;;;;;;;;;;;27.90;97.90;;;;;;1821031;78;20207;-91
2021/07/26 14:23:41;;;;;;;;;;;27.80;97.80;;;;;;1812372;78;20191;-92
2021/07/26 14:26:24;;;;;;;;;;;27.80;97.90;;;;;;1817814;78;20193;-91
2021/07/26 14:28:56;;;;;;;;;;;27.90;97.90;;;;;;1816959;78;20172;-91
2021/07/26 14:31:26;;;;;;;;;;;27.90;97.90;;;;;;1812026;78;20164;-92
2021/07/26 14:33:56;;;;;;;;;;;27.90;97.80;;;;;;1814151;78;20238;-92
2021/07/26 14:36:33;;;;;;;;;;;27.80;97.60;;;;;;1816852;78;20162;-92
2021/07/26 14:39:00;;;;;;;;;;;27.80;97.50;;;;;;1820539;78;20116;-92
2021/07/26 14:41:30;;;;;;;;;;;27.80;97.60;;;;;;1823684;78;20658;-92
2021/07/26 14:44:00;;;;;;;;;;;27.80;97.50;;;;;;1808304;78;20176;-92
2021/07/26 14:46:30;;;;;;;;;;;27.80;97.30;;;;;;1815289;78;20181;-91
2021/07/26 14:49:00;;;;;;;;;;;27.80;97.20;;;;;;1809739;78;20416;-92
2021/07/26 14:51:39;;;;;;;;;;;27.80;97.20;;;;;;1826036;78;20197;-92
2021/07/26 14:54:11;;;;;;;;;;;27.90;97.10;;;;;;1814219;78;20215;-92
2021/07/26 14:56:40;;;;;;;;;;;27.90;97.00;;;;;;1820847;77;20430;-91
2021/07/26 14:59:11;;;;;;;;;;;27.80;96.90;;;;;;1844552;77;20242;-91
2021/07/26 15:01:41;;;;;;;;;;;27.80;96.90;;;;;;1819823;77;20230;-91
2021/07/26 15:04:17;;;;;;;;;;;27.80;96.90;;;;;;1861244;77;20229;-91
2021/07/26 15:06:47;;;;;;;;;;;27.80;96.90;;;;;;1856737;77;20263;-92